sensor_id;sensor_type;location;lat;lon;timestamp;P1;durP1;ratioP1;P2;durP2;ratioP2
16286;SDS011;8251;53.568;10.018;2023-12-14T00:05:04;1.97;;;1.13;;
16286;SDS011;8251;53.568;10.018;2023-12-14T00:07:42;2.77;;;1.37;;
16286;SDS011;8251;53.568;10.018;2023-12-14T00:10:09;2.73;;;1.40;;
16286;SDS011;8251;53.568;10.018;2023-12-14T00:12:37;3.60;;;1.30;;
16286;SDS011;8251;53.568;10.018;2023-12-14T00:15:06;2.30;;;1.30;;
16286;SDS011;8251;53.568;10.018;2023-12-14T00:17:37;1.47;;;1.00;;
16286;SDS011;8251;53.568;10.018;2023-12-14T00:20:07;1.53;;;0.90;;
16286;SDS011;8251;53.568;10.018;2023-12-14T00:22:49;1.53;;;1.37;;
16286;SDS011;8251;53.568;10.018;2023-12-14T00:25:19;3.27;;;1.40;;
16286;SDS011;8251;53.568;10.018;2023-12-14T00:27:48;1.50;;;1.10;;
16286;SDS011;8251;53.568;10.018;2023-12-14T00:30:17;3.47;;;1.30;;
16286;SDS011;8251;53.568;10.018;2023-12-14T00:32:47;2.10;;;1.03;;
16286;SDS011;8251;53.568;10.018;2023-12-14T00:35:14;2.50;;;1.30;;
16286;SDS011;8251;53.568;10.018;2023-12-14T00:37:42;3.57;;;1.53;;
16286;SDS011;8251;53.568;10.018;2023-12-14T00:40:11;2.30;;;1.43;;
16286;SDS011;8251;53.568;10.018;2023-12-14T00:42:40;5.97;;;1.37;;
16286;SDS011;8251;53.568;10.018;2023-12-14T00:45:11;5.70;;;1.40;;
16286;SDS011;8251;53.568;10.018;2023-12-14T00:47:52;3.37;;;1.10;;
16286;SDS011;8251;53.568;10.018;2023-12-14T00:50:20;2.67;;;1.23;;
16286;SDS011;8251;53.568;10.018;2023-12-14T00:52:48;1.77;;;1.27;;
16286;SDS011;8251;53.568;10.018;2023-12-14T00:55:16;3.23;;;1.67;;
16286;SDS011;8251;53.568;10.018;2023-12-14T00:57:47;4.00;;;1.37;;
16286;SDS011;8251;53.568;10.018;2023-12-14T01:00:17;2.37;;;1.10;;
16286;SDS011;8251;53.568;10.018;2023-12-14T01:02:50;1.13;;;0.90;;
16286;SDS011;8251;53.568;10.018;2023-12-14T01:05:17;5.90;;;1.23;;
16286;SDS011;8251;53.568;10.018;2023-12-14T01:07:44;1.10;;;0.80;;
16286;SDS011;8251;53.568;10.018;2023-12-14T01:10:12;1.70;;;1.00;;
16286;SDS011;8251;53.568;10.018;2023-12-14T01:12:41;2.50;;;1.20;;
16286;SDS011;8251;53.568;10.018;2023-12-14T01:15:10;0.73;;;0.73;;
16286;SDS011;8251;53.568;10.018;2023-12-14T01:17:38;2.80;;;1.13;;
16286;SDS011;8251;53.568;10.018;2023-12-14T01:20:14;7.07;;;1.47;;
16286;SDS011;8251;53.568;10.018;2023-12-14T01:22:43;4.47;;;1.23;;
16286;SDS011;8251;53.568;10.018;2023-12-14T01:25:15;1.47;;;1.10;;
16286;SDS011;8251;53.568;10.018;2023-12-14T01:27:44;2.17;;;1.17;;
16286;SDS011;8251;53.568;10.018;2023-12-14T01:30:12;1.63;;;1.10;;
16286;SDS011;8251;53.568;10.018;2023-12-14T01:32:40;2.40;;;1.17;;
16286;SDS011;8251;53.568;10.018;2023-12-14T01:35:13;3.10;;;1.23;;
16286;SDS011;8251;53.568;10.018;2023-12-14T01:37:41;3.23;;;1.30;;
16286;SDS011;8251;53.568;10.018;2023-12-14T01:40:09;2.87;;;0.97;;
16286;SDS011;8251;53.568;10.018;2023-12-14T01:42:52;3.00;;;1.10;;
16286;SDS011;8251;53.568;10.018;2023-12-14T01:45:20;1.50;;;1.23;;
16286;SDS011;8251;53.568;10.018;2023-12-14T01:47:54;4.60;;;0.90;;
16286;SDS011;8251;53.568;10.018;2023-12-14T01:50:30;3.90;;;1.67;;
16286;SDS011;8251;53.568;10.018;2023-12-14T01:52:58;2.40;;;1.30;;
16286;SDS011;8251;53.568;10.018;2023-12-14T01:55:27;1.63;;;1.23;;
16286;SDS011;8251;53.568;10.018;2023-12-14T01:57:58;2.43;;;1.23;;
16286;SDS011;8251;53.568;10.018;2023-12-14T02:00:28;2.03;;;1.00;;
16286;SDS011;8251;53.568;10.018;2023-12-14T02:03:11;11.20;;;1.27;;
16286;SDS011;8251;53.568;10.018;2023-12-14T02:05:45;4.37;;;1.80;;
16286;SDS011;8251;53.568;10.018;2023-12-14T02:08:13;2.00;;;1.00;;
16286;SDS011;8251;53.568;10.018;2023-12-14T02:10:44;2.80;;;1.10;;
16286;SDS011;8251;53.568;10.018;2023-12-14T02:13:13;3.93;;;1.00;;
16286;SDS011;8251;53.568;10.018;2023-12-14T02:15:41;1.23;;;0.87;;
16286;SDS011;8251;53.568;10.018;2023-12-14T02:18:13;4.33;;;1.37;;
16286;SDS011;8251;53.568;10.018;2023-12-14T02:20:41;1.73;;;0.60;;
16286;SDS011;8251;53.568;10.018;2023-12-14T02:23:15;1.33;;;0.83;;
16286;SDS011;8251;53.568;10.018;2023-12-14T02:25:42;2.70;;;0.97;;
16286;SDS011;8251;53.568;10.018;2023-12-14T02:28:12;2.60;;;0.90;;
16286;SDS011;8251;53.568;10.018;2023-12-14T02:30:40;1.87;;;0.77;;
16286;SDS011;8251;53.568;10.018;2023-12-14T02:33:08;3.03;;;1.30;;
16286;SDS011;8251;53.568;10.018;2023-12-14T02:35:41;3.43;;;1.27;;
16286;SDS011;8251;53.568;10.018;2023-12-14T02:38:27;3.17;;;1.00;;
16286;SDS011;8251;53.568;10.018;2023-12-14T02:40:54;1.43;;;0.90;;
16286;SDS011;8251;53.568;10.018;2023-12-14T02:43:21;3.43;;;0.90;;
16286;SDS011;8251;53.568;10.018;2023-12-14T02:45:50;2.23;;;1.60;;
16286;SDS011;8251;53.568;10.018;2023-12-14T02:48:17;5.03;;;1.33;;
16286;SDS011;8251;53.568;10.018;2023-12-14T02:50:48;3.20;;;0.90;;
16286;SDS011;8251;53.568;10.018;2023-12-14T02:53:17;1.10;;;0.90;;
16286;SDS011;8251;53.568;10.018;2023-12-14T02:55:46;5.63;;;0.90;;
16286;SDS011;8251;53.568;10.018;2023-12-14T02:58:13;3.27;;;0.93;;
16286;SDS011;8251;53.568;10.018;2023-12-14T03:00:41;2.33;;;1.30;;
16286;SDS011;8251;53.568;10.018;2023-12-14T03:03:12;3.57;;;0.97;;
16286;SDS011;8251;53.568;10.018;2023-12-14T03:05:39;2.83;;;1.10;;
16286;SDS011;8251;53.568;10.018;2023-12-14T03:08:07;3.57;;;1.33;;
16286;SDS011;8251;53.568;10.018;2023-12-14T03:10:41;2.73;;;0.90;;
16286;SDS011;8251;53.568;10.018;2023-12-14T03:13:12;3.73;;;0.90;;
16286;SDS011;8251;53.568;10.018;2023-12-14T03:15:39;1.27;;;0.87;;
16286;SDS011;8251;53.568;10.018;2023-12-14T03:18:11;1.10;;;0.83;;
16286;SDS011;8251;53.568;10.018;2023-12-14T03:20:38;1.50;;;0.93;;
16286;SDS011;8251;53.568;10.018;2023-12-14T03:23:07;1.13;;;1.00;;
16286;SDS011;8251;53.568;10.018;2023-12-14T03:25:41;2.73;;;1.07;;
16286;SDS011;8251;53.568;10.018;2023-12-14T03:28:10;2.50;;;0.93;;
16286;SDS011;8251;53.568;10.018;2023-12-14T03:30:38;2.33;;;0.90;;
16286;SDS011;8251;53.568;10.018;2023-12-14T03:33:06;1.10;;;1.00;;
16286;SDS011;8251;53.568;10.018;2023-12-14T03:35:33;2.50;;;0.97;;
16286;SDS011;8251;53.568;10.018;2023-12-14T03:38:01;2.80;;;1.00;;
16286;SDS011;8251;53.568;10.018;2023-12-14T03:40:28;3.30;;;1.30;;
16286;SDS011;8251;53.568;10.018;2023-12-14T03:42:57;2.73;;;1.27;;
16286;SDS011;8251;53.568;10.018;2023-12-14T03:45:27;2.60;;;1.20;;
16286;SDS011;8251;53.568;10.018;2023-12-14T03:47:55;2.20;;;1.13;;
16286;SDS011;8251;53.568;10.018;2023-12-14T03:50:24;3.87;;;1.17;;
16286;SDS011;8251;53.568;10.018;2023-12-14T03:52:52;3.43;;;1.27;;
16286;SDS011;8251;53.568;10.018;2023-12-14T03:55:20;1.40;;;1.20;;
16286;SDS011;8251;53.568;10.018;2023-12-14T03:57:48;3.17;;;1.17;;
16286;SDS011;8251;53.568;10.018;2023-12-14T04:00:18;1.40;;;1.10;;
16286;SDS011;8251;53.568;10.018;2023-12-14T04:02:46;6.57;;;1.47;;
16286;SDS011;8251;53.568;10.018;2023-12-14T04:05:15;1.30;;;1.13;;
16286;SDS011;8251;53.568;10.018;2023-12-14T04:07:42;0.87;;;0.77;;
16286;SDS011;8251;53.568;10.018;2023-12-14T04:10:29;2.67;;;1.47;;
16286;SDS011;8251;53.568;10.018;2023-12-14T04:12:56;3.53;;;1.30;;
16286;SDS011;8251;53.568;10.018;2023-12-14T04:15:25;1.77;;;0.80;;
16286;SDS011;8251;53.568;10.018;2023-12-14T04:17:52;1.67;;;1.03;;
16286;SDS011;8251;53.568;10.018;2023-12-14T04:20:19;1.57;;;1.13;;
16286;SDS011;8251;53.568;10.018;2023-12-14T04:22:49;4.37;;;1.20;;
16286;SDS011;8251;53.568;10.018;2023-12-14T04:25:19;5.13;;;1.20;;
16286;SDS011;8251;53.568;10.018;2023-12-14T04:27:49;1.73;;;0.87;;
16286;SDS011;8251;53.568;10.018;2023-12-14T04:30:18;2.17;;;1.10;;
16286;SDS011;8251;53.568;10.018;2023-12-14T04:32:50;2.97;;;1.37;;
16286;SDS011;8251;53.568;10.018;2023-12-14T04:35:23;2.50;;;1.73;;
16286;SDS011;8251;53.568;10.018;2023-12-14T04:37:52;4.43;;;1.33;;
16286;SDS011;8251;53.568;10.018;2023-12-14T04:40:25;2.10;;;1.13;;
16286;SDS011;8251;53.568;10.018;2023-12-14T04:42:53;2.87;;;1.27;;
16286;SDS011;8251;53.568;10.018;2023-12-14T04:45:22;1.70;;;1.00;;
16286;SDS011;8251;53.568;10.018;2023-12-14T04:47:55;3.23;;;1.53;;
16286;SDS011;8251;53.568;10.018;2023-12-14T04:50:23;2.10;;;0.97;;
16286;SDS011;8251;53.568;10.018;2023-12-14T04:52:55;4.30;;;1.30;;
16286;SDS011;8251;53.568;10.018;2023-12-14T04:55:26;3.27;;;1.70;;
16286;SDS011;8251;53.568;10.018;2023-12-14T04:57:58;3.63;;;1.30;;
16286;SDS011;8251;53.568;10.018;2023-12-14T05:00:26;2.43;;;1.50;;
16286;SDS011;8251;53.568;10.018;2023-12-14T05:02:57;5.50;;;1.50;;
16286;SDS011;8251;53.568;10.018;2023-12-14T05:05:24;2.00;;;1.30;;
16286;SDS011;8251;53.568;10.018;2023-12-14T05:07:53;2.30;;;1.47;;
16286;SDS011;8251;53.568;10.018;2023-12-14T05:10:20;2.87;;;1.30;;
16286;SDS011;8251;53.568;10.018;2023-12-14T05:12:48;7.53;;;1.80;;
16286;SDS011;8251;53.568;10.018;2023-12-14T05:15:18;6.87;;;1.83;;
16286;SDS011;8251;53.568;10.018;2023-12-14T05:17:47;4.83;;;1.77;;
16286;SDS011;8251;53.568;10.018;2023-12-14T05:20:19;2.60;;;1.90;;
16286;SDS011;8251;53.568;10.018;2023-12-14T05:22:48;3.90;;;1.47;;
16286;SDS011;8251;53.568;10.018;2023-12-14T05:25:17;1.77;;;1.50;;
16286;SDS011;8251;53.568;10.018;2023-12-14T05:27:48;3.20;;;1.50;;
16286;SDS011;8251;53.568;10.018;2023-12-14T05:30:16;7.20;;;1.90;;
16286;SDS011;8251;53.568;10.018;2023-12-14T05:32:45;4.27;;;1.73;;
16286;SDS011;8251;53.568;10.018;2023-12-14T05:35:12;4.60;;;1.97;;
16286;SDS011;8251;53.568;10.018;2023-12-14T05:37:43;3.10;;;1.83;;
16286;SDS011;8251;53.568;10.018;2023-12-14T05:40:12;4.13;;;1.60;;
16286;SDS011;8251;53.568;10.018;2023-12-14T05:42:49;6.83;;;2.37;;
16286;SDS011;8251;53.568;10.018;2023-12-14T05:45:18;5.47;;;1.80;;
16286;SDS011;8251;53.568;10.018;2023-12-14T05:47:48;5.20;;;1.90;;
16286;SDS011;8251;53.568;10.018;2023-12-14T05:50:21;4.87;;;1.97;;
16286;SDS011;8251;53.568;10.018;2023-12-14T05:52:53;5.50;;;1.77;;
16286;SDS011;8251;53.568;10.018;2023-12-14T05:55:21;2.80;;;1.90;;
16286;SDS011;8251;53.568;10.018;2023-12-14T05:57:52;3.77;;;1.77;;
16286;SDS011;8251;53.568;10.018;2023-12-14T06:00:23;2.63;;;1.60;;
16286;SDS011;8251;53.568;10.018;2023-12-14T06:02:50;2.60;;;1.50;;
16286;SDS011;8251;53.568;10.018;2023-12-14T06:05:21;4.57;;;1.70;;
16286;SDS011;8251;53.568;10.018;2023-12-14T06:07:50;6.60;;;2.20;;
16286;SDS011;8251;53.568;10.018;2023-12-14T06:10:24;4.23;;;2.17;;
16286;SDS011;8251;53.568;10.018;2023-12-14T06:12:51;3.30;;;1.87;;
16286;SDS011;8251;53.568;10.018;2023-12-14T06:15:22;4.03;;;2.50;;
16286;SDS011;8251;53.568;10.018;2023-12-14T06:17:50;3.33;;;1.90;;
16286;SDS011;8251;53.568;10.018;2023-12-14T06:20:19;4.83;;;2.40;;
16286;SDS011;8251;53.568;10.018;2023-12-14T06:22:49;4.57;;;2.23;;
16286;SDS011;8251;53.568;10.018;2023-12-14T06:25:21;7.63;;;2.27;;
16286;SDS011;8251;53.568;10.018;2023-12-14T06:27:49;3.20;;;2.00;;
16286;SDS011;8251;53.568;10.018;2023-12-14T06:30:16;7.63;;;2.83;;
16286;SDS011;8251;53.568;10.018;2023-12-14T06:32:43;5.97;;;2.60;;
16286;SDS011;8251;53.568;10.018;2023-12-14T06:35:11;8.40;;;2.77;;
16286;SDS011;8251;53.568;10.018;2023-12-14T06:37:38;5.07;;;3.10;;
16286;SDS011;8251;53.568;10.018;2023-12-14T06:40:10;4.73;;;2.33;;
16286;SDS011;8251;53.568;10.018;2023-12-14T06:42:38;3.57;;;2.63;;
16286;SDS011;8251;53.568;10.018;2023-12-14T06:45:11;7.83;;;3.23;;
16286;SDS011;8251;53.568;10.018;2023-12-14T06:47:39;5.97;;;2.90;;
16286;SDS011;8251;53.568;10.018;2023-12-14T06:50:09;4.20;;;2.87;;
16286;SDS011;8251;53.568;10.018;2023-12-14T06:52:38;9.37;;;2.83;;
16286;SDS011;8251;53.568;10.018;2023-12-14T06:55:06;3.87;;;2.93;;
16286;SDS011;8251;53.568;10.018;2023-12-14T06:57:44;5.87;;;3.17;;
16286;SDS011;8251;53.568;10.018;2023-12-14T07:00:14;5.30;;;3.17;;
16286;SDS011;8251;53.568;10.018;2023-12-14T07:02:44;9.73;;;3.03;;
16286;SDS011;8251;53.568;10.018;2023-12-14T07:05:11;4.37;;;3.00;;
16286;SDS011;8251;53.568;10.018;2023-12-14T07:07:38;7.03;;;2.67;;
16286;SDS011;8251;53.568;10.018;2023-12-14T07:10:10;4.80;;;2.80;;
16286;SDS011;8251;53.568;10.018;2023-12-14T07:12:38;5.97;;;3.27;;
16286;SDS011;8251;53.568;10.018;2023-12-14T07:15:13;8.43;;;3.10;;
16286;SDS011;8251;53.568;10.018;2023-12-14T07:17:42;5.53;;;3.10;;
16286;SDS011;8251;53.568;10.018;2023-12-14T07:20:09;4.43;;;2.83;;
16286;SDS011;8251;53.568;10.018;2023-12-14T07:22:39;11.03;;;3.80;;
16286;SDS011;8251;53.568;10.018;2023-12-14T07:25:09;7.73;;;2.83;;
16286;SDS011;8251;53.568;10.018;2023-12-14T07:27:41;5.10;;;3.10;;
16286;SDS011;8251;53.568;10.018;2023-12-14T07:30:15;6.10;;;2.67;;
16286;SDS011;8251;53.568;10.018;2023-12-14T07:32:42;7.37;;;3.00;;
16286;SDS011;8251;53.568;10.018;2023-12-14T07:35:10;10.07;;;3.07;;
16286;SDS011;8251;53.568;10.018;2023-12-14T07:37:40;6.20;;;2.90;;
16286;SDS011;8251;53.568;10.018;2023-12-14T07:40:08;5.03;;;3.17;;
16286;SDS011;8251;53.568;10.018;2023-12-14T07:42:41;5.10;;;3.03;;
16286;SDS011;8251;53.568;10.018;2023-12-14T07:45:09;6.67;;;3.47;;
16286;SDS011;8251;53.568;10.018;2023-12-14T07:47:37;6.73;;;3.13;;
16286;SDS011;8251;53.568;10.018;2023-12-14T07:50:05;6.13;;;3.23;;
16286;SDS011;8251;53.568;10.018;2023-12-14T07:52:42;5.63;;;2.40;;
16286;SDS011;8251;53.568;10.018;2023-12-14T07:55:14;6.33;;;3.40;;
16286;SDS011;8251;53.568;10.018;2023-12-14T07:57:42;5.07;;;2.93;;
16286;SDS011;8251;53.568;10.018;2023-12-14T08:00:10;5.00;;;2.80;;
16286;SDS011;8251;53.568;10.018;2023-12-14T08:02:42;3.97;;;2.60;;
16286;SDS011;8251;53.568;10.018;2023-12-14T08:05:09;4.17;;;2.60;;
16286;SDS011;8251;53.568;10.018;2023-12-14T08:07:39;3.40;;;2.37;;
16286;SDS011;8251;53.568;10.018;2023-12-14T08:10:10;6.20;;;3.37;;
16286;SDS011;8251;53.568;10.018;2023-12-14T08:12:40;5.27;;;3.73;;
16286;SDS011;8251;53.568;10.018;2023-12-14T08:15:18;7.77;;;2.90;;
16286;SDS011;8251;53.568;10.018;2023-12-14T08:17:56;5.53;;;3.03;;
16286;SDS011;8251;53.568;10.018;2023-12-14T08:20:23;6.87;;;2.90;;
16286;SDS011;8251;53.568;10.018;2023-12-14T08:22:53;5.83;;;3.00;;
16286;SDS011;8251;53.568;10.018;2023-12-14T08:25:22;4.33;;;2.97;;
16286;SDS011;8251;53.568;10.018;2023-12-14T08:27:49;5.40;;;2.93;;
16286;SDS011;8251;53.568;10.018;2023-12-14T08:30:16;7.20;;;3.00;;
16286;SDS011;8251;53.568;10.018;2023-12-14T08:33:02;8.70;;;3.03;;
16286;SDS011;8251;53.568;10.018;2023-12-14T08:35:35;8.97;;;4.17;;
16286;SDS011;8251;53.568;10.018;2023-12-14T08:38:04;6.50;;;3.03;;
16286;SDS011;8251;53.568;10.018;2023-12-14T08:40:33;5.13;;;3.27;;
16286;SDS011;8251;53.568;10.018;2023-12-14T08:43:03;6.73;;;3.57;;
16286;SDS011;8251;53.568;10.018;2023-12-14T08:45:34;10.07;;;3.00;;
16286;SDS011;8251;53.568;10.018;2023-12-14T08:48:05;3.63;;;2.63;;
16286;SDS011;8251;53.568;10.018;2023-12-14T08:50:33;7.23;;;3.20;;
16286;SDS011;8251;53.568;10.018;2023-12-14T08:53:00;7.50;;;3.43;;
16286;SDS011;8251;53.568;10.018;2023-12-14T08:55:27;8.97;;;2.90;;
16286;SDS011;8251;53.568;10.018;2023-12-14T08:57:54;10.53;;;3.50;;
16286;SDS011;8251;53.568;10.018;2023-12-14T09:00:23;4.20;;;2.60;;
16286;SDS011;8251;53.568;10.018;2023-12-14T09:02:51;4.47;;;2.93;;
16286;SDS011;8251;53.568;10.018;2023-12-14T09:05:22;4.43;;;2.63;;
16286;SDS011;8251;53.568;10.018;2023-12-14T09:07:51;9.40;;;2.77;;
16286;SDS011;8251;53.568;10.018;2023-12-14T09:10:22;3.47;;;2.53;;
16286;SDS011;8251;53.568;10.018;2023-12-14T09:12:51;8.33;;;3.00;;
16286;SDS011;8251;53.568;10.018;2023-12-14T09:15:20;4.03;;;2.80;;
16286;SDS011;8251;53.568;10.018;2023-12-14T09:17:51;4.90;;;2.70;;
16286;SDS011;8251;53.568;10.018;2023-12-14T09:20:25;10.03;;;3.67;;
16286;SDS011;8251;53.568;10.018;2023-12-14T09:22:55;10.50;;;3.80;;
16286;SDS011;8251;53.568;10.018;2023-12-14T09:25:24;4.60;;;3.10;;
16286;SDS011;8251;53.568;10.018;2023-12-14T09:27:51;3.90;;;2.70;;
16286;SDS011;8251;53.568;10.018;2023-12-14T09:30:22;3.50;;;2.27;;
16286;SDS011;8251;53.568;10.018;2023-12-14T09:32:49;8.60;;;3.00;;
16286;SDS011;8251;53.568;10.018;2023-12-14T09:35:20;4.47;;;2.50;;
16286;SDS011;8251;53.568;10.018;2023-12-14T09:37:58;6.50;;;3.13;;
16286;SDS011;8251;53.568;10.018;2023-12-14T09:40:26;4.87;;;3.03;;
16286;SDS011;8251;53.568;10.018;2023-12-14T09:42:54;7.57;;;3.10;;
16286;SDS011;8251;53.568;10.018;2023-12-14T09:45:27;6.63;;;2.80;;
16286;SDS011;8251;53.568;10.018;2023-12-14T09:47:55;8.33;;;3.40;;
16286;SDS011;8251;53.568;10.018;2023-12-14T09:50:28;4.93;;;3.23;;
16286;SDS011;8251;53.568;10.018;2023-12-14T09:52:58;5.43;;;2.90;;
16286;SDS011;8251;53.568;10.018;2023-12-14T09:55:25;5.93;;;3.37;;
16286;SDS011;8251;53.568;10.018;2023-12-14T09:57:59;7.07;;;3.90;;
16286;SDS011;8251;53.568;10.018;2023-12-14T10:00:36;6.47;;;3.53;;
16286;SDS011;8251;53.568;10.018;2023-12-14T10:03:20;6.40;;;3.30;;
16286;SDS011;8251;53.568;10.018;2023-12-14T10:05:54;8.70;;;3.83;;
16286;SDS011;8251;53.568;10.018;2023-12-14T10:08:31;5.23;;;3.30;;
16286;SDS011;8251;53.568;10.018;2023-12-14T10:10:58;6.27;;;3.43;;
16286;SDS011;8251;53.568;10.018;2023-12-14T10:13:36;9.20;;;3.17;;
16286;SDS011;8251;53.568;10.018;2023-12-14T10:16:06;5.00;;;2.90;;
16286;SDS011;8251;53.568;10.018;2023-12-14T10:18:37;6.37;;;3.47;;
16286;SDS011;8251;53.568;10.018;2023-12-14T10:21:09;7.70;;;2.87;;
16286;SDS011;8251;53.568;10.018;2023-12-14T10:23:40;7.10;;;2.90;;
16286;SDS011;8251;53.568;10.018;2023-12-14T10:26:12;7.23;;;3.23;;
16286;SDS011;8251;53.568;10.018;2023-12-14T10:28:43;4.57;;;2.97;;
16286;SDS011;8251;53.568;10.018;2023-12-14T10:31:10;6.70;;;2.80;;
16286;SDS011;8251;53.568;10.018;2023-12-14T10:33:40;5.23;;;3.20;;
16286;SDS011;8251;53.568;10.018;2023-12-14T10:36:10;4.77;;;2.70;;
16286;SDS011;8251;53.568;10.018;2023-12-14T10:38:40;7.30;;;4.20;;
16286;SDS011;8251;53.568;10.018;2023-12-14T10:41:13;8.07;;;3.30;;
16286;SDS011;8251;53.568;10.018;2023-12-14T10:43:47;11.20;;;3.80;;
16286;SDS011;8251;53.568;10.018;2023-12-14T10:46:18;8.53;;;3.43;;
16286;SDS011;8251;53.568;10.018;2023-12-14T10:48:47;5.07;;;2.67;;
16286;SDS011;8251;53.568;10.018;2023-12-14T10:51:20;6.57;;;2.90;;
16286;SDS011;8251;53.568;10.018;2023-12-14T10:53:52;6.53;;;3.13;;
16286;SDS011;8251;53.568;10.018;2023-12-14T10:56:22;3.87;;;2.60;;
16286;SDS011;8251;53.568;10.018;2023-12-14T10:58:51;6.67;;;3.10;;
16286;SDS011;8251;53.568;10.018;2023-12-14T11:01:22;6.93;;;2.87;;
16286;SDS011;8251;53.568;10.018;2023-12-14T11:03:50;4.93;;;3.17;;
16286;SDS011;8251;53.568;10.018;2023-12-14T11:06:30;6.00;;;2.70;;
16286;SDS011;8251;53.568;10.018;2023-12-14T11:09:00;3.70;;;2.40;;
16286;SDS011;8251;53.568;10.018;2023-12-14T11:11:38;4.63;;;2.30;;
16286;SDS011;8251;53.568;10.018;2023-12-14T11:14:07;3.67;;;2.67;;
16286;SDS011;8251;53.568;10.018;2023-12-14T11:16:37;4.47;;;2.63;;
16286;SDS011;8251;53.568;10.018;2023-12-14T11:19:28;4.67;;;2.90;;
16286;SDS011;8251;53.568;10.018;2023-12-14T11:22:27;5.07;;;3.30;;
16286;SDS011;8251;53.568;10.018;2023-12-14T11:24:57;5.23;;;2.90;;
16286;SDS011;8251;53.568;10.018;2023-12-14T11:27:27;5.17;;;3.40;;
16286;SDS011;8251;53.568;10.018;2023-12-14T11:30:00;5.57;;;3.03;;
16286;SDS011;8251;53.568;10.018;2023-12-14T11:32:37;9.03;;;3.03;;
16286;SDS011;8251;53.568;10.018;2023-12-14T11:35:09;3.93;;;2.87;;
16286;SDS011;8251;53.568;10.018;2023-12-14T11:37:44;6.63;;;4.10;;
16286;SDS011;8251;53.568;10.018;2023-12-14T11:40:13;5.07;;;3.57;;
16286;SDS011;8251;53.568;10.018;2023-12-14T11:42:41;7.67;;;2.83;;
16286;SDS011;8251;53.568;10.018;2023-12-14T11:45:12;4.97;;;3.10;;
16286;SDS011;8251;53.568;10.018;2023-12-14T11:47:43;3.77;;;2.57;;
16286;SDS011;8251;53.568;10.018;2023-12-14T11:50:13;6.87;;;3.77;;
16286;SDS011;8251;53.568;10.018;2023-12-14T11:52:57;8.43;;;3.30;;
16286;SDS011;8251;53.568;10.018;2023-12-14T11:55:25;5.50;;;3.37;;
16286;SDS011;8251;53.568;10.018;2023-12-14T11:57:53;6.57;;;3.67;;
16286;SDS011;8251;53.568;10.018;2023-12-14T12:00:24;5.67;;;3.87;;
16286;SDS011;8251;53.568;10.018;2023-12-14T12:03:06;5.40;;;3.70;;
16286;SDS011;8251;53.568;10.018;2023-12-14T12:05:37;8.57;;;3.40;;
16286;SDS011;8251;53.568;10.018;2023-12-14T12:08:09;5.73;;;3.27;;
16286;SDS011;8251;53.568;10.018;2023-12-14T12:10:38;9.00;;;2.97;;
16286;SDS011;8251;53.568;10.018;2023-12-14T12:13:06;7.63;;;3.77;;
16286;SDS011;8251;53.568;10.018;2023-12-14T12:15:40;8.07;;;3.10;;
16286;SDS011;8251;53.568;10.018;2023-12-14T12:18:22;7.13;;;2.90;;
16286;SDS011;8251;53.568;10.018;2023-12-14T12:20:52;5.03;;;2.87;;
16286;SDS011;8251;53.568;10.018;2023-12-14T12:23:31;4.70;;;2.97;;
16286;SDS011;8251;53.568;10.018;2023-12-14T12:26:03;4.83;;;3.13;;
16286;SDS011;8251;53.568;10.018;2023-12-14T12:28:33;5.07;;;3.73;;
16286;SDS011;8251;53.568;10.018;2023-12-14T12:31:04;8.17;;;3.53;;
16286;SDS011;8251;53.568;10.018;2023-12-14T12:33:32;5.57;;;2.87;;
16286;SDS011;8251;53.568;10.018;2023-12-14T12:36:04;4.57;;;3.20;;
16286;SDS011;8251;53.568;10.018;2023-12-14T12:38:36;8.53;;;3.50;;
16286;SDS011;8251;53.568;10.018;2023-12-14T12:41:06;5.30;;;3.40;;
16286;SDS011;8251;53.568;10.018;2023-12-14T12:43:37;5.67;;;2.87;;
16286;SDS011;8251;53.568;10.018;2023-12-14T12:46:06;6.47;;;3.53;;
16286;SDS011;8251;53.568;10.018;2023-12-14T12:48:33;6.67;;;3.70;;
16286;SDS011;8251;53.568;10.018;2023-12-14T12:51:03;9.17;;;3.63;;
16286;SDS011;8251;53.568;10.018;2023-12-14T12:53:34;6.83;;;3.40;;
16286;SDS011;8251;53.568;10.018;2023-12-14T12:56:08;8.27;;;3.83;;
16286;SDS011;8251;53.568;10.018;2023-12-14T12:58:35;9.03;;;3.37;;
16286;SDS011;8251;53.568;10.018;2023-12-14T13:01:06;8.93;;;3.53;;
16286;SDS011;8251;53.568;10.018;2023-12-14T13:03:38;13.20;;;4.43;;
16286;SDS011;8251;53.568;10.018;2023-12-14T13:06:05;4.97;;;3.77;;
16286;SDS011;8251;53.568;10.018;2023-12-14T13:08:34;6.57;;;3.43;;
16286;SDS011;8251;53.568;10.018;2023-12-14T13:11:01;5.93;;;3.27;;
16286;SDS011;8251;53.568;10.018;2023-12-14T13:13:37;7.13;;;3.80;;
16286;SDS011;8251;53.568;10.018;2023-12-14T13:16:09;7.37;;;3.20;;
16286;SDS011;8251;53.568;10.018;2023-12-14T13:18:45;6.90;;;3.33;;
16286;SDS011;8251;53.568;10.018;2023-12-14T13:21:17;8.37;;;4.47;;
16286;SDS011;8251;53.568;10.018;2023-12-14T13:23:47;7.17;;;4.30;;
16286;SDS011;8251;53.568;10.018;2023-12-14T13:26:17;8.63;;;3.70;;
16286;SDS011;8251;53.568;10.018;2023-12-14T13:28:46;8.37;;;3.73;;
16286;SDS011;8251;53.568;10.018;2023-12-14T13:31:17;5.67;;;3.43;;
16286;SDS011;8251;53.568;10.018;2023-12-14T13:33:46;9.97;;;4.90;;
16286;SDS011;8251;53.568;10.018;2023-12-14T13:36:15;5.53;;;3.93;;
16286;SDS011;8251;53.568;10.018;2023-12-14T13:38:43;10.50;;;3.40;;
16286;SDS011;8251;53.568;10.018;2023-12-14T13:41:11;7.23;;;3.80;;
16286;SDS011;8251;53.568;10.018;2023-12-14T13:43:39;7.63;;;4.20;;
16286;SDS011;8251;53.568;10.018;2023-12-14T13:46:08;4.73;;;3.50;;
16286;SDS011;8251;53.568;10.018;2023-12-14T13:48:36;6.03;;;3.37;;
16286;SDS011;8251;53.568;10.018;2023-12-14T13:51:15;7.73;;;3.17;;
16286;SDS011;8251;53.568;10.018;2023-12-14T13:54:13;7.23;;;3.63;;
16286;SDS011;8251;53.568;10.018;2023-12-14T13:56:43;5.40;;;3.70;;
16286;SDS011;8251;53.568;10.018;2023-12-14T13:59:10;6.03;;;3.30;;
16286;SDS011;8251;53.568;10.018;2023-12-14T14:01:43;6.03;;;3.40;;
16286;SDS011;8251;53.568;10.018;2023-12-14T14:04:10;6.33;;;3.73;;
16286;SDS011;8251;53.568;10.018;2023-12-14T14:06:37;6.17;;;3.80;;
16286;SDS011;8251;53.568;10.018;2023-12-14T14:09:05;6.13;;;3.67;;
16286;SDS011;8251;53.568;10.018;2023-12-14T14:11:35;4.37;;;2.93;;
16286;SDS011;8251;53.568;10.018;2023-12-14T14:14:11;8.60;;;3.27;;
16286;SDS011;8251;53.568;10.018;2023-12-14T14:16:47;8.03;;;3.27;;
16286;SDS011;8251;53.568;10.018;2023-12-14T14:19:17;5.90;;;3.20;;
16286;SDS011;8251;53.568;10.018;2023-12-14T14:21:45;7.60;;;4.53;;
16286;SDS011;8251;53.568;10.018;2023-12-14T14:24:15;7.83;;;3.93;;
16286;SDS011;8251;53.568;10.018;2023-12-14T14:26:45;6.83;;;3.00;;
16286;SDS011;8251;53.568;10.018;2023-12-14T14:29:15;4.40;;;3.37;;
16286;SDS011;8251;53.568;10.018;2023-12-14T14:31:45;9.10;;;3.20;;
16286;SDS011;8251;53.568;10.018;2023-12-14T14:34:13;4.13;;;3.00;;
16286;SDS011;8251;53.568;10.018;2023-12-14T14:36:43;9.80;;;3.20;;
16286;SDS011;8251;53.568;10.018;2023-12-14T14:39:10;10.03;;;4.07;;
16286;SDS011;8251;53.568;10.018;2023-12-14T14:41:39;7.87;;;3.53;;
16286;SDS011;8251;53.568;10.018;2023-12-14T14:44:07;6.27;;;3.77;;
16286;SDS011;8251;53.568;10.018;2023-12-14T14:46:35;6.23;;;3.60;;
16286;SDS011;8251;53.568;10.018;2023-12-14T14:49:07;7.90;;;3.47;;
16286;SDS011;8251;53.568;10.018;2023-12-14T14:51:36;10.27;;;3.10;;
16286;SDS011;8251;53.568;10.018;2023-12-14T14:54:09;7.27;;;3.70;;
16286;SDS011;8251;53.568;10.018;2023-12-14T14:56:37;6.20;;;3.27;;
16286;SDS011;8251;53.568;10.018;2023-12-14T14:59:06;11.03;;;4.20;;
16286;SDS011;8251;53.568;10.018;2023-12-14T15:01:37;14.40;;;3.80;;
16286;SDS011;8251;53.568;10.018;2023-12-14T15:04:10;5.90;;;3.50;;
16286;SDS011;8251;53.568;10.018;2023-12-14T15:06:39;5.90;;;3.73;;
16286;SDS011;8251;53.568;10.018;2023-12-14T15:09:06;4.37;;;3.17;;
16286;SDS011;8251;53.568;10.018;2023-12-14T15:11:35;7.13;;;3.20;;